Terminal Aerodrome Forecast
Issued by NWS

Home | Current Version | Previous Version | Text Only | Print | Product List | Glossary On
Versions: 1 2 3 4 5 6 7 8 9 10 11 12 13 14
000
FTUS42 KTAE 021122
TAFVLD
TAF
KVLD 021122Z 0212/0312 26006KT P6SM SCT040
      TEMPO 0219/0223 26010G20KT 5SM TSRA BKN040CB
     FM030000 00000KT P6SM OVC100=

USA.gov is the U.S. government's official web portal to all federal, state and local government web resources and services.